»·PEaware :: DAL6154 KPDX-KLAX

DAL6154 :: KPDX-KLAX

FLIGHT INFORMATION

Flight Status: Arrived
Operator:
Delta Air Lines
More flights by this operator :: More flights under this callsign
Pilot: Tyler J. (19619)
Aircraft: BOEING 717-200
(B712)
More flights by this aircraft type
Origin: KPDX Portland Intl
United States
Destination: KLAX Los Angeles Intl
United States
More flights between these airports :: More routes between these airports
Route: HRMNS5 HRMNS J189 LMT J189 LIN BURGL IRNMN2
File this flight plan on PilotEdge
Remarks:
Altitude:
(Current/Filed)
33,000ft
Speed:
(Current/Filed)
430kts
Departed: 04-Aug-18 06:55 PM
Arrived: 04-Aug-18 08:52 PM
Distance/Time
Traveled:
725nm/1:57
Distance/Time
To Go:
Arrived

Flight Plot

Page will automatically refresh every two minutes.

Flight plan parsing failed; only flown route is shown


Map Options




Map Legend


Flown Route
Filed Route
Departure Airport
Arrival Airport
Navaid (VOR, NDB)
Fix

Horizontal Profiles

Position Reports

Time Latitude Longitude Heading Altitude Ground
Speed
04-Aug-18 18:31 45.591317 -122.594111 203 38ft 0kts
04-Aug-18 18:32 45.591317 -122.594111 203 38ft 0kts
04-Aug-18 18:33 45.591317 -122.594111 203 38ft 0kts
04-Aug-18 18:34 45.591317 -122.594111 203 38ft 0kts
04-Aug-18 18:35 45.591317 -122.594111 203 38ft 0kts
04-Aug-18 18:36 45.591317 -122.594111 203 38ft 0kts
04-Aug-18 18:37 45.591317 -122.594111 203 38ft 0kts
04-Aug-18 18:38 45.591317 -122.594111 203 38ft 0kts
04-Aug-18 18:39 45.591317 -122.594111 203 38ft 0kts
04-Aug-18 18:40 45.591317 -122.594111 203 38ft 0kts
04-Aug-18 18:41 45.591317 -122.594111 203 38ft 0kts
04-Aug-18 18:42 45.591317 -122.594111 203 38ft 0kts
04-Aug-18 18:43 45.591539 -122.593977 201 38ft 2kts
04-Aug-18 18:44 45.592100 -122.593930 127 38ft 2kts
04-Aug-18 18:45 45.592190 -122.594151 119 38ft 0kts
04-Aug-18 18:46 45.592190 -122.594151 119 38ft 0kts
04-Aug-18 18:47 45.591752 -122.593036 119 38ft 17kts
04-Aug-18 18:48 45.590379 -122.589523 86 38ft 0kts
04-Aug-18 18:49 45.589767 -122.585356 119 38ft 24kts
04-Aug-18 18:50 45.587315 -122.579107 119 38ft 9kts
04-Aug-18 18:51 45.585714 -122.575088 119 38ft 14kts
04-Aug-18 18:52 45.583990 -122.570730 119 38ft 11kts
04-Aug-18 18:53 45.583592 -122.569305 62 38ft 0kts
04-Aug-18 18:54 45.583592 -122.569304 62 38ft 0kts
04-Aug-18 18:55 45.584786 -122.569843 299 38ft 26kts
04-Aug-18 18:56 45.603306 -122.617728 299 1038ft 193kts
04-Aug-18 18:57 45.628663 -122.695882 295 2624ft 229kts
04-Aug-18 18:58 45.660125 -122.777164 299 5232ft 235kts
04-Aug-18 18:59 45.660605 -122.872171 242 7456ft 276kts
04-Aug-18 19:00 45.592894 -122.914159 168 10216ft 295kts
04-Aug-18 19:01 45.506305 -122.863574 148 10812ft 378kts
04-Aug-18 19:02 45.413960 -122.784148 149 12823ft 394kts
04-Aug-18 19:03 45.318556 -122.702755 149 14879ft 405kts
04-Aug-18 19:04 45.220638 -122.619546 149 16780ft 416kts
04-Aug-18 19:05 45.119837 -122.534235 149 18488ft 426kts
04-Aug-18 19:06 45.016675 -122.447283 149 20031ft 436kts
04-Aug-18 19:07 44.905115 -122.378919 170 21377ft 444kts
04-Aug-18 19:08 44.781885 -122.349156 170 22595ft 454kts
04-Aug-18 19:09 44.656039 -122.318114 170 23700ft 463kts
04-Aug-18 19:10 44.527987 -122.286689 170 24695ft 472kts
04-Aug-18 19:11 44.397523 -122.254814 170 25685ft 477kts
04-Aug-18 19:12 44.266814 -122.223018 170 26903ft 477kts
04-Aug-18 19:13 44.135603 -122.191247 170 28088ft 478kts
04-Aug-18 19:14 44.009541 -122.160857 170 29345ft 477kts
04-Aug-18 19:15 43.879163 -122.129558 171 30742ft 472kts
04-Aug-18 19:16 43.749726 -122.098625 171 32104ft 468kts
04-Aug-18 19:17 43.621244 -122.068061 171 32996ft 469kts
04-Aug-18 19:18 43.492866 -122.037649 172 33034ft 467kts
04-Aug-18 19:19 43.364521 -122.007373 173 33037ft 469kts
04-Aug-18 19:20 43.235745 -121.977130 173 33035ft 469kts
04-Aug-18 19:21 43.107402 -121.947128 173 33038ft 470kts
04-Aug-18 19:22 42.979028 -121.917217 175 33039ft 464kts
04-Aug-18 19:23 42.850744 -121.887453 175 33037ft 462kts
04-Aug-18 19:24 42.724536 -121.858329 176 33042ft 457kts
04-Aug-18 19:25 42.600555 -121.829847 176 33046ft 455kts
04-Aug-18 19:26 42.476003 -121.801273 177 33047ft 447kts
04-Aug-18 19:27 42.352518 -121.773128 177 33049ft 451kts
04-Aug-18 19:28 42.233784 -121.746165 177 33050ft 450kts
04-Aug-18 19:29 42.110525 -121.719786 179 33048ft 445kts
04-Aug-18 19:30 41.987267 -121.696666 179 33045ft 446kts
04-Aug-18 19:31 41.864345 -121.673656 179 33041ft 447kts
04-Aug-18 19:32 41.741725 -121.650762 179 33037ft 444kts
04-Aug-18 19:33 41.619491 -121.628021 180 33039ft 440kts
04-Aug-18 19:34 41.497415 -121.605448 180 33033ft 443kts
04-Aug-18 19:35 41.376007 -121.583049 180 33031ft 442kts
04-Aug-18 19:36 41.254247 -121.560657 180 33013ft 439kts
04-Aug-18 19:37 41.132341 -121.538351 180 33003ft 441kts
04-Aug-18 19:38 41.011733 -121.516362 180 32988ft 440kts
04-Aug-18 19:39 40.890330 -121.494275 181 32961ft 437kts
04-Aug-18 19:40 40.774619 -121.473340 181 32946ft 438kts
04-Aug-18 19:41 40.654405 -121.451653 181 32919ft 436kts
04-Aug-18 19:42 40.534035 -121.430010 181 32918ft 436kts
04-Aug-18 19:43 40.413830 -121.408480 182 32915ft 435kts
04-Aug-18 19:44 40.293730 -121.387051 182 32951ft 435kts
04-Aug-18 19:45 40.174439 -121.365833 182 32980ft 433kts
04-Aug-18 19:46 40.054954 -121.344655 182 32981ft 432kts
04-Aug-18 19:47 39.935894 -121.323640 182 32986ft 432kts
04-Aug-18 19:48 39.816877 -121.302699 182 32996ft 432kts
04-Aug-18 19:49 39.697423 -121.281755 182 32994ft 432kts
04-Aug-18 19:50 39.578612 -121.260991 182 32991ft 432kts
04-Aug-18 19:51 39.459059 -121.240178 182 32997ft 433kts
04-Aug-18 19:52 39.339810 -121.219485 182 32992ft 433kts
04-Aug-18 19:53 39.220243 -121.198802 182 32976ft 432kts
04-Aug-18 19:54 39.105076 -121.178961 182 32999ft 433kts
04-Aug-18 19:55 38.985348 -121.158406 182 33014ft 435kts
04-Aug-18 19:56 38.865733 -121.137911 182 32999ft 433kts
04-Aug-18 19:57 38.746208 -121.117524 182 32987ft 433kts
04-Aug-18 19:58 38.626543 -121.097180 182 32965ft 433kts
04-Aug-18 19:59 38.507325 -121.076974 182 32953ft 432kts
04-Aug-18 20:00 38.388153 -121.056846 182 32944ft 432kts
04-Aug-18 20:01 38.268666 -121.036740 182 32939ft 433kts
04-Aug-18 20:02 38.149293 -121.016697 182 32924ft 432kts
04-Aug-18 20:03 38.030038 -120.987328 173 32924ft 446kts
04-Aug-18 20:04 37.911472 -120.941623 173 32918ft 447kts
04-Aug-18 20:05 37.792195 -120.896032 172 32915ft 447kts
04-Aug-18 20:06 37.672996 -120.850629 172 32904ft 447kts
04-Aug-18 20:07 37.554121 -120.805501 172 32897ft 447kts
04-Aug-18 20:08 37.434801 -120.760356 172 32896ft 447kts
04-Aug-18 20:09 37.319412 -120.716838 172 32895ft 447kts
04-Aug-18 20:10 37.200348 -120.672087 172 32895ft 447kts
04-Aug-18 20:11 37.080724 -120.627269 172 32897ft 447kts
04-Aug-18 20:12 36.961507 -120.582744 172 32899ft 447kts
04-Aug-18 20:13 36.841802 -120.538194 172 32899ft 448kts
04-Aug-18 20:14 36.722560 -120.493959 171 32900ft 448kts
04-Aug-18 20:15 36.602866 -120.449696 171 32896ft 449kts
04-Aug-18 20:16 36.482838 -120.405454 171 32900ft 450kts
04-Aug-18 20:17 36.362735 -120.361337 170 32898ft 451kts
04-Aug-18 20:18 36.242424 -120.317265 170 32896ft 450kts
04-Aug-18 20:19 36.122198 -120.273380 170 32890ft 451kts
04-Aug-18 20:20 36.001354 -120.229411 169 32890ft 452kts
04-Aug-18 20:21 35.880940 -120.185728 169 32892ft 452kts
04-Aug-18 20:22 35.764174 -120.143503 169 32898ft 452kts
04-Aug-18 20:23 35.644833 -120.092114 156 32904ft 463kts
04-Aug-18 20:24 35.534662 -120.009002 154 32906ft 465kts
04-Aug-18 20:25 35.424197 -119.926014 153 32746ft 468kts
04-Aug-18 20:26 35.312745 -119.842481 153 30386ft 465kts
04-Aug-18 20:27 35.206681 -119.747849 146 28139ft 474kts
04-Aug-18 20:28 35.101528 -119.649712 146 25613ft 472kts
04-Aug-18 20:29 34.999342 -119.554690 146 23045ft 453kts
04-Aug-18 20:30 34.900228 -119.463235 145 20621ft 439kts
04-Aug-18 20:31 34.807923 -119.380569 146 19755ft 389kts
04-Aug-18 20:32 34.719695 -119.302316 146 19006ft 392kts
04-Aug-18 20:33 34.631491 -119.225422 146 17987ft 386kts
04-Aug-18 20:34 34.544804 -119.150295 145 16471ft 378kts
04-Aug-18 20:35 34.465240 -119.079853 145 14810ft 369kts
04-Aug-18 20:36 34.383220 -119.008376 145 13588ft 359kts
04-Aug-18 20:37 34.301051 -118.935540 144 14062ft 365kts
04-Aug-18 20:38 34.221742 -118.863195 143 13260ft 359kts
04-Aug-18 20:39 34.146230 -118.790707 139 12164ft 333kts
04-Aug-18 20:40 34.081248 -118.720028 139 11536ft 301kts
04-Aug-18 20:41 34.028799 -118.644307 103 10314ft 296kts
04-Aug-18 20:42 34.018476 -118.546911 96 9133ft 290kts
04-Aug-18 20:43 34.011993 -118.450865 82 7783ft 286kts
04-Aug-18 20:44 34.026215 -118.361748 79 6862ft 251kts
04-Aug-18 20:45 34.033247 -118.294823 83 6042ft 241kts
04-Aug-18 20:46 34.041346 -118.202342 83 3608ft 236kts
04-Aug-18 20:47 34.020817 -118.138613 165 2656ft 224kts
04-Aug-18 20:48 33.976871 -118.153055 246 2594ft 208kts
04-Aug-18 20:49 33.969617 -118.233010 263 2013ft 208kts
04-Aug-18 20:50 33.964036 -118.287521 262 1876ft 171kts
04-Aug-18 20:51 33.958673 -118.339074 262 1171ft 151kts
04-Aug-18 20:52 33.952594 -118.397353 263 241ft 145kts
04-Aug-18 20:53 33.949880 -118.423989 262 134ft 40kts
04-Aug-18 20:54 33.947005 -118.427641 176 134ft 3kts
04-Aug-18 20:55 33.946895 -118.427634 176 134ft 1kts
04-Aug-18 20:56 33.942994 -118.427194 173 134ft 26kts
04-Aug-18 20:57 33.937102 -118.426240 129 134ft 12kts
04-Aug-18 20:58 33.937766 -118.418278 82 134ft 29kts
04-Aug-18 20:59 33.938649 -118.409693 82 134ft 19kts
04-Aug-18 21:00 33.939278 -118.403288 82 134ft 14kts
04-Aug-18 21:01 33.940806 -118.403518 274 134ft 2kts
04-Aug-18 21:02 33.940810 -118.403627 272 134ft 0kts
04-Aug-18 21:03 33.940810 -118.403627 272 134ft 0kts
04-Aug-18 21:04 33.940810 -118.403627 272 134ft 0kts

Navigation Log

Ident Type
Flight plan parsing failed, navigation log unavailable